Time;durP1;ratioP1;P1;durP2;ratioP2;P2;SDS_P1;SDS_P2;PMS_P1;PMS_P2;Temp;Humidity;BMP_temperature;BMP_pressure;BME280_temperature;BME280_humidity;BME280_pressure;Samples;Min_cycle;Max_cycle;Signal;HPM_P1;HPM_P2
2021/08/26 00:05:55;;;;;;;16.75;10.35;;;25.00;58.20;;;;;;4164982;28;20066;-47
2021/08/26 00:07:57;;;;;;;18.83;9.95;;;24.70;58.80;;;;;;4165040;28;20961;-56
2021/08/26 00:09:59;;;;;;;14.75;9.52;;;24.50;59.40;;;;;;4164914;28;20068;-54
2021/08/26 00:12:01;;;;;;;12.88;8.75;;;24.50;59.70;;;;;;4164636;28;20080;-52
2021/08/26 00:14:05;;;;;;;12.63;9.85;;;24.40;59.30;;;;;;3814677;28;10000703;-54
2021/08/26 00:16:07;;;;;;;14.30;8.80;;;24.50;59.40;;;;;;4163714;28;20050;-59
2021/08/26 00:18:09;;;;;;;12.82;8.52;;;24.40;59.40;;;;;;4163690;28;20072;-57
2021/08/26 00:20:12;;;;;;;12.27;8.48;;;24.40;59.40;;;;;;4163249;28;20048;-56
2021/08/26 00:22:17;;;;;;;12.98;8.30;;;24.50;59.40;;;;;;4162648;28;20101;-51
2021/08/26 00:24:19;;;;;;;17.40;8.35;;;24.70;58.90;;;;;;4163175;28;20045;-58
2021/08/26 00:26:21;;;;;;;16.40;7.97;;;25.00;58.10;;;;;;4163168;28;20057;-53
2021/08/26 00:28:23;;;;;;;11.95;7.90;;;25.20;57.60;;;;;;4163656;28;20050;-57
2021/08/26 00:30:25;;;;;;;14.32;7.35;;;25.40;57.10;;;;;;4163732;28;20044;-56
2021/08/26 00:32:27;;;;;;;12.95;8.00;;;25.50;56.50;;;;;;4161979;28;20042;-56
2021/08/26 00:34:29;;;;;;;12.15;8.25;;;25.60;56.40;;;;;;4163117;28;20057;-55
2021/08/26 00:36:31;;;;;;;14.00;8.00;;;25.70;56.10;;;;;;4163040;28;20038;-56
2021/08/26 00:38:34;;;;;;;13.30;7.03;;;25.70;55.80;;;;;;4146760;28;20048;-58
2021/08/26 00:40:36;;;;;;;10.07;7.55;;;25.70;55.80;;;;;;4147251;28;20535;-56
2021/08/26 00:42:38;;;;;;;10.55;7.20;;;25.80;55.60;;;;;;4147447;28;20073;-55
2021/08/26 00:44:41;;;;;;;10.45;6.15;;;25.80;55.50;;;;;;4159209;28;20129;-54
2021/08/26 00:46:47;;;;;;;8.50;6.22;;;25.90;55.40;;;;;;4163464;28;20069;-56
2021/08/26 00:48:49;;;;;;;11.50;5.70;;;25.90;55.20;;;;;;4163060;28;20053;-58
2021/08/26 00:50:53;;;;;;;7.68;5.53;;;25.90;55.10;;;;;;4163095;28;20042;-52
2021/08/26 00:52:56;;;;;;;9.07;6.30;;;25.90;55.10;;;;;;4163316;28;20046;-52
2021/08/26 00:54:58;;;;;;;7.53;5.75;;;25.90;54.90;;;;;;4163092;28;20066;-50
2021/08/26 00:57:00;;;;;;;7.93;5.72;;;25.90;55.00;;;;;;4162830;28;20049;-51
2021/08/26 00:59:04;;;;;;;11.18;6.28;;;25.90;54.90;;;;;;4163123;28;20105;-57
2021/08/26 01:01:09;;;;;;;8.00;6.50;;;25.90;54.80;;;;;;4162763;28;20056;-59
2021/08/26 01:03:15;;;;;;;106.65;91.78;;;25.80;55.10;;;;;;4162952;28;20046;-59
2021/08/26 01:05:32;;;;;;;53.25;39.72;;;25.30;56.30;;;;;;4146766;28;20046;-57
2021/08/26 01:08:05;;;;;;;30.83;26.63;;;25.10;57.20;;;;;;4157517;28;20073;-50
2021/08/26 01:10:12;;;;;;;23.75;17.73;;;25.40;56.40;;;;;;4162619;28;20113;-52
2021/08/26 01:12:18;;;;;;;16.73;13.98;;;25.50;55.80;;;;;;4163177;28;20048;-52
2021/08/26 01:14:20;;;;;;;14.00;11.27;;;25.60;55.50;;;;;;4155144;28;20054;-51
2021/08/26 01:16:22;;;;;;;14.88;11.52;;;25.60;55.20;;;;;;4154140;28;20152;-50
2021/08/26 01:18:27;;;;;;;13.52;9.90;;;25.70;55.10;;;;;;4163162;28;20046;-51
2021/08/26 01:20:29;;;;;;;16.38;9.10;;;25.70;54.90;;;;;;4162814;28;20056;-48
2021/08/26 01:22:32;;;;;;;9.82;8.60;;;25.80;54.90;;;;;;4162837;28;20045;-49
2021/08/26 01:24:36;;;;;;;35.45;9.73;;;25.80;54.70;;;;;;4163143;28;20079;-56
2021/08/26 01:26:45;;;;;;;13.35;8.00;;;25.80;55.10;;;;;;4164117;28;20076;-54
2021/08/26 01:28:49;;;;;;;14.35;7.65;;;25.80;54.60;;;;;;4164607;28;20046;-49
2021/08/26 01:30:51;;;;;;;11.33;7.10;;;25.80;54.40;;;;;;4165343;28;20042;-47
2021/08/26 01:32:57;;;;;;;10.55;7.38;;;25.80;54.40;;;;;;4167262;28;20072;-48
2021/08/26 01:34:59;;;;;;;10.10;5.88;;;25.80;54.30;;;;;;4182964;28;20108;-41
2021/08/26 01:37:01;;;;;;;10.35;6.70;;;25.80;54.30;;;;;;4167313;28;20072;-39
2021/08/26 01:39:09;;;;;;;11.65;6.32;;;25.80;54.20;;;;;;4166516;28;20105;-41
2021/08/26 01:41:15;;;;;;;8.40;6.05;;;25.80;54.10;;;;;;4167367;28;20058;-39
2021/08/26 01:43:21;;;;;;;8.38;6.80;;;25.90;54.10;;;;;;4166678;28;20062;-43
2021/08/26 01:45:22;;;;;;;8.52;6.15;;;25.90;54.00;;;;;;4167168;28;20064;-41
2021/08/26 01:47:25;;;;;;;7.53;5.43;;;25.90;53.90;;;;;;4167299;28;20056;-41
2021/08/26 01:49:27;;;;;;;9.30;5.10;;;25.90;53.80;;;;;;4167240;28;20042;-45
2021/08/26 01:51:29;;;;;;;5.88;5.28;;;25.90;53.70;;;;;;4166873;28;20097;-45
2021/08/26 01:53:31;;;;;;;9.32;5.55;;;25.90;53.60;;;;;;4166958;28;20062;-46
2021/08/26 01:55:33;;;;;;;9.80;5.20;;;25.90;53.60;;;;;;4167233;28;20041;-46
2021/08/26 01:57:35;;;;;;;7.38;5.20;;;25.90;53.50;;;;;;4167703;28;20105;-45
2021/08/26 01:59:37;;;;;;;10.93;4.90;;;25.90;53.50;;;;;;4167683;28;20750;-47
2021/08/26 02:01:39;;;;;;;8.32;4.57;;;25.90;53.40;;;;;;4167273;28;20105;-48
2021/08/26 02:03:41;;;;;;;9.40;4.97;;;25.90;53.50;;;;;;4167540;28;20049;-49
2021/08/26 02:05:43;;;;;;;6.82;4.95;;;25.90;53.40;;;;;;4167383;28;20073;-46
2021/08/26 02:07:50;;;;;;;6.78;4.10;;;25.90;53.30;;;;;;4167529;28;20049;-46
2021/08/26 02:09:52;;;;;;;7.25;4.50;;;25.90;53.40;;;;;;4167460;28;20062;-44
2021/08/26 02:11:54;;;;;;;4.90;4.20;;;25.90;53.40;;;;;;4167335;28;20069;-45
2021/08/26 02:13:56;;;;;;;6.20;4.07;;;25.90;53.30;;;;;;4167378;28;20048;-48
2021/08/26 02:15:58;;;;;;;5.15;3.90;;;25.90;53.30;;;;;;4167196;28;20046;-47
2021/08/26 02:18:00;;;;;;;5.10;3.42;;;25.90;53.30;;;;;;4167276;28;20049;-49
2021/08/26 02:20:06;;;;;;;7.28;4.10;;;25.90;53.40;;;;;;4167144;28;20052;-48
2021/08/26 02:22:08;;;;;;;7.78;3.83;;;25.90;53.30;;;;;;4166465;28;20052;-47
2021/08/26 02:24:11;;;;;;;5.32;3.78;;;25.90;53.40;;;;;;4167517;28;20069;-49
2021/08/26 02:26:13;;;;;;;7.85;3.85;;;25.90;53.40;;;;;;4167171;28;20042;-51
2021/08/26 02:28:15;;;;;;;7.95;4.05;;;25.90;53.30;;;;;;4166997;28;20042;-51
2021/08/26 02:30:17;;;;;;;4.50;4.10;;;25.80;53.40;;;;;;4167166;28;20073;-47
2021/08/26 02:32:19;;;;;;;6.20;4.47;;;25.90;53.40;;;;;;4167069;28;20084;-47
2021/08/26 02:34:21;;;;;;;8.00;4.22;;;25.80;53.40;;;;;;4167116;28;20098;-49
2021/08/26 02:36:23;;;;;;;6.47;4.65;;;25.80;53.40;;;;;;4167391;28;20069;-44
2021/08/26 02:38:25;;;;;;;5.40;4.20;;;25.80;53.40;;;;;;4166892;28;20070;-46
2021/08/26 02:40:28;;;;;;;11.27;4.78;;;25.80;53.40;;;;;;4165959;28;20121;-48
2021/08/26 02:42:30;;;;;;;8.90;5.38;;;25.80;53.50;;;;;;4166771;28;20109;-47
2021/08/26 02:44:32;;;;;;;7.20;4.88;;;25.80;53.40;;;;;;4166665;28;20089;-46
2021/08/26 02:46:34;;;;;;;8.15;4.25;;;25.80;53.40;;;;;;4165933;28;20139;-45
2021/08/26 02:48:36;;;;;;;4.72;3.83;;;25.70;53.40;;;;;;4166846;28;20038;-47
2021/08/26 02:50:38;;;;;;;9.60;3.95;;;25.80;53.50;;;;;;4167142;28;20038;-47
2021/08/26 02:52:40;;;;;;;6.68;4.28;;;25.70;53.60;;;;;;4166105;28;20042;-44
2021/08/26 02:54:42;;;;;;;4.85;3.80;;;25.70;53.60;;;;;;4167057;28;20116;-46
2021/08/26 02:56:44;;;;;;;4.65;3.55;;;25.70;53.60;;;;;;4166112;28;20045;-49
2021/08/26 02:58:46;;;;;;;4.88;3.78;;;25.70;53.50;;;;;;4166978;28;20065;-45
2021/08/26 03:00:48;;;;;;;8.90;3.78;;;25.70;53.50;;;;;;4166109;28;20052;-45
2021/08/26 03:02:50;;;;;;;6.10;3.25;;;25.70;53.50;;;;;;4166877;28;20057;-44
2021/08/26 03:04:52;;;;;;;5.63;3.58;;;25.70;53.60;;;;;;4166193;28;20101;-45
2021/08/26 03:06:54;;;;;;;4.97;4.05;;;25.70;53.50;;;;;;4166242;28;20038;-44
2021/08/26 03:08:56;;;;;;;8.38;3.80;;;25.60;53.60;;;;;;4166245;28;20486;-43
2021/08/26 03:10:59;;;;;;;7.57;3.90;;;25.60;53.60;;;;;;4166365;28;20073;-47
2021/08/26 03:13:02;;;;;;;4.60;3.80;;;25.60;53.60;;;;;;4166621;28;20101;-45
2021/08/26 03:15:05;;;;;;;4.38;3.38;;;25.60;53.60;;;;;;4166759;28;20065;-47
2021/08/26 03:17:07;;;;;;;4.85;3.50;;;25.60;53.60;;;;;;4166740;28;20069;-45
2021/08/26 03:19:09;;;;;;;6.15;3.97;;;25.60;53.60;;;;;;4166706;28;20061;-46
2021/08/26 03:21:11;;;;;;;4.55;3.35;;;25.60;53.60;;;;;;4166759;28;20045;-45
2021/08/26 03:23:13;;;;;;;4.55;3.70;;;25.60;53.60;;;;;;4165396;28;20050;-45
2021/08/26 03:25:15;;;;;;;6.90;3.50;;;25.60;53.70;;;;;;4166390;28;20042;-44
2021/08/26 03:27:17;;;;;;;6.07;3.80;;;25.50;53.70;;;;;;4166653;28;20093;-44
2021/08/26 03:29:19;;;;;;;6.13;2.90;;;25.50;53.80;;;;;;4166556;28;20149;-45
2021/08/26 03:31:22;;;;;;;5.63;3.45;;;25.60;53.80;;;;;;4165735;28;20152;-44
2021/08/26 03:33:24;;;;;;;4.38;3.58;;;25.50;53.80;;;;;;4165346;28;20049;-45
2021/08/26 03:35:26;;;;;;;3.97;3.30;;;25.50;53.80;;;;;;4166157;28;20562;-44
2021/08/26 03:37:28;;;;;;;3.92;3.25;;;25.50;53.80;;;;;;4165986;28;20076;-44
2021/08/26 03:39:30;;;;;;;4.50;3.22;;;25.50;53.80;;;;;;4166072;28;20105;-45
2021/08/26 03:41:32;;;;;;;4.32;3.05;;;25.50;53.90;;;;;;4166684;28;20065;-47
2021/08/26 03:43:34;;;;;;;8.45;4.50;;;25.40;53.90;;;;;;4166163;28;20890;-45
2021/08/26 03:45:36;;;;;;;5.05;3.35;;;25.50;54.00;;;;;;4166236;28;20097;-46
2021/08/26 03:47:38;;;;;;;9.63;3.13;;;25.40;54.00;;;;;;4166321;28;20065;-50
2021/08/26 03:49:40;;;;;;;5.60;3.42;;;25.40;54.10;;;;;;4166140;28;20118;-51
2021/08/26 03:51:42;;;;;;;4.30;3.20;;;25.40;54.10;;;;;;4166071;28;20102;-48
2021/08/26 03:53:44;;;;;;;5.28;3.13;;;25.40;54.10;;;;;;4165699;28;20065;-49
2021/08/26 03:55:46;;;;;;;5.53;3.38;;;25.40;54.20;;;;;;4166224;28;20042;-49
2021/08/26 03:57:48;;;;;;;3.53;3.20;;;25.40;54.20;;;;;;4165949;28;20094;-49
2021/08/26 03:59:51;;;;;;;6.68;3.95;;;25.40;54.20;;;;;;4165992;28;20052;-45
2021/08/26 04:01:53;;;;;;;8.20;3.40;;;25.40;54.10;;;;;;4165905;28;20077;-45
2021/08/26 04:03:55;;;;;;;5.38;2.70;;;25.40;54.20;;;;;;4165082;28;20069;-46
2021/08/26 04:05:57;;;;;;;6.13;3.33;;;25.30;54.20;;;;;;4166026;28;20065;-48
2021/08/26 04:07:59;;;;;;;4.97;3.15;;;25.40;54.20;;;;;;4165836;28;20447;-46
2021/08/26 04:10:02;;;;;;;4.55;3.40;;;25.30;54.20;;;;;;4148562;28;20058;-46
2021/08/26 04:12:05;;;;;;;5.90;3.28;;;25.40;54.20;;;;;;4149565;28;20045;-45
2021/08/26 04:14:07;;;;;;;4.03;3.30;;;25.40;54.20;;;;;;4161694;28;20048;-46
2021/08/26 04:16:09;;;;;;;4.85;3.65;;;25.30;54.30;;;;;;4165796;28;20097;-46
2021/08/26 04:18:11;;;;;;;4.93;3.50;;;25.40;54.30;;;;;;4165676;28;20076;-44
2021/08/26 04:20:13;;;;;;;4.45;3.30;;;25.30;54.30;;;;;;4165321;28;20097;-41
2021/08/26 04:22:15;;;;;;;5.55;3.67;;;25.30;54.40;;;;;;4165089;28;20048;-41
2021/08/26 04:24:17;;;;;;;5.07;3.17;;;25.30;55.00;;;;;;4164825;28;20041;-43
2021/08/26 04:26:19;;;;;;;5.18;2.55;;;25.40;54.50;;;;;;4164944;28;20105;-42
2021/08/26 04:28:21;;;;;;;9.07;3.15;;;25.30;54.70;;;;;;4164964;28;20052;-43
2021/08/26 04:30:23;;;;;;;4.47;3.35;;;25.40;54.40;;;;;;4164470;28;20062;-44
2021/08/26 04:32:25;;;;;;;4.80;3.53;;;25.30;54.40;;;;;;4164894;28;20461;-42
2021/08/26 04:34:27;;;;;;;6.55;3.20;;;25.30;54.50;;;;;;4165008;28;20037;-46
2021/08/26 04:36:29;;;;;;;3.95;2.97;;;25.30;54.50;;;;;;4164372;28;20073;-45
2021/08/26 04:38:32;;;;;;;4.65;3.40;;;25.30;54.50;;;;;;4164924;28;20077;-47
2021/08/26 04:40:35;;;;;;;8.50;3.55;;;25.30;54.50;;;;;;4164221;28;20046;-44
2021/08/26 04:42:37;;;;;;;8.38;3.58;;;25.20;56.00;;;;;;4164764;28;20071;-48
2021/08/26 04:44:39;;;;;;;7.30;4.35;;;25.20;55.60;;;;;;4163793;28;20172;-44
2021/08/26 04:46:41;;;;;;;4.95;3.38;;;25.20;55.10;;;;;;4165046;28;20097;-48
2021/08/26 04:48:43;;;;;;;6.65;3.75;;;25.20;54.90;;;;;;4164801;28;20042;-47
2021/08/26 04:50:45;;;;;;;6.25;3.60;;;25.20;54.90;;;;;;4164618;28;20046;-48
2021/08/26 04:52:47;;;;;;;7.05;4.30;;;25.20;54.80;;;;;;4165227;28;20101;-49
2021/08/26 04:54:49;;;;;;;7.57;4.95;;;25.20;54.80;;;;;;4165048;28;20069;-50
2021/08/26 04:56:51;;;;;;;7.38;5.10;;;25.20;54.70;;;;;;4165039;28;20056;-51
2021/08/26 04:58:53;;;;;;;5.72;4.85;;;25.20;54.70;;;;;;4165112;28;20954;-49
2021/08/26 05:00:55;;;;;;;11.75;4.60;;;25.20;54.70;;;;;;4165010;28;20103;-48
2021/08/26 05:02:57;;;;;;;5.13;4.63;;;25.20;54.70;;;;;;4164826;28;20046;-49
2021/08/26 05:05:00;;;;;;;6.57;4.40;;;25.20;54.60;;;;;;4164994;28;20151;-52
2021/08/26 05:07:02;;;;;;;4.97;3.80;;;25.20;54.60;;;;;;4167604;28;20094;-49
2021/08/26 05:09:04;;;;;;;6.68;4.22;;;25.20;54.60;;;;;;4168354;28;20109;-48
2021/08/26 05:11:06;;;;;;;6.25;4.05;;;25.20;54.70;;;;;;4168314;28;20062;-46
2021/08/26 05:13:08;;;;;;;6.88;4.32;;;25.20;54.70;;;;;;4168467;28;20073;-46
2021/08/26 05:15:10;;;;;;;7.38;4.18;;;25.20;54.70;;;;;;4168143;28;20046;-50
2021/08/26 05:17:12;;;;;;;7.53;3.50;;;25.20;55.30;;;;;;4167732;28;20116;-52
2021/08/26 05:19:14;;;;;;;8.00;3.78;;;25.20;54.80;;;;;;4167704;28;20101;-49
2021/08/26 05:21:16;;;;;;;6.15;3.67;;;25.20;54.70;;;;;;4168290;28;20046;-49
2021/08/26 05:23:18;;;;;;;7.13;4.60;;;25.20;54.70;;;;;;4168020;28;20050;-49
2021/08/26 05:25:20;;;;;;;6.40;3.80;;;25.20;54.70;;;;;;4168032;28;20064;-52
2021/08/26 05:27:22;;;;;;;5.85;4.60;;;25.20;54.70;;;;;;4167998;28;20052;-47
2021/08/26 05:29:24;;;;;;;4.70;3.28;;;25.20;54.70;;;;;;4167570;28;20097;-47
2021/08/26 05:31:26;;;;;;;4.28;3.70;;;25.20;54.70;;;;;;4168070;28;20098;-51
2021/08/26 05:33:28;;;;;;;5.20;3.25;;;25.20;54.60;;;;;;4167844;28;20102;-49
2021/08/26 05:35:30;;;;;;;7.80;3.83;;;25.20;54.70;;;;;;4167762;28;20054;-47
2021/08/26 05:37:36;;;;;;;4.55;3.50;;;25.10;54.60;;;;;;4167838;28;20081;-47
2021/08/26 05:39:38;;;;;;;4.32;3.38;;;25.20;54.60;;;;;;4168009;28;20065;-49
2021/08/26 05:41:46;;;;;;;5.38;3.20;;;25.20;54.60;;;;;;4167941;28;20057;-49
2021/08/26 05:43:48;;;;;;;7.40;4.57;;;25.10;54.60;;;;;;4167856;28;20069;-50
2021/08/26 05:45:50;;;;;;;4.72;3.47;;;25.10;54.50;;;;;;4167582;28;20073;-45
2021/08/26 05:47:55;;;;;;;7.35;3.60;;;25.20;54.60;;;;;;4167823;28;20093;-44
2021/08/26 05:49:57;;;;;;;7.90;3.17;;;25.10;54.50;;;;;;4167656;28;20042;-44
2021/08/26 05:51:59;;;;;;;5.97;3.38;;;25.20;54.50;;;;;;4167869;28;20076;-47
2021/08/26 05:54:02;;;;;;;4.35;2.90;;;25.20;54.50;;;;;;4167667;28;20056;-43
2021/08/26 05:56:04;;;;;;;3.70;2.83;;;25.20;54.40;;;;;;4167461;28;20065;-44
2021/08/26 05:58:06;;;;;;;4.38;3.35;;;25.20;54.40;;;;;;4167461;28;20080;-44
2021/08/26 06:00:09;;;;;;;4.68;3.15;;;25.10;54.40;;;;;;4167510;28;20045;-42
2021/08/26 06:02:11;;;;;;;5.00;3.08;;;25.10;54.40;;;;;;4150529;28;20050;-47
2021/08/26 06:04:13;;;;;;;6.32;3.70;;;25.10;54.40;;;;;;4166930;28;20053;-43
2021/08/26 06:06:15;;;;;;;4.57;3.33;;;25.20;54.40;;;;;;4167342;28;20105;-42
2021/08/26 06:08:17;;;;;;;8.02;4.20;;;25.20;54.40;;;;;;4167446;28;20038;-43
2021/08/26 06:10:19;;;;;;;5.65;3.38;;;25.10;54.40;;;;;;4167480;28;20069;-42
2021/08/26 06:12:21;;;;;;;5.90;3.60;;;25.20;54.40;;;;;;4167344;28;20113;-43
2021/08/26 06:14:23;;;;;;;10.30;3.75;;;25.20;54.40;;;;;;4167166;28;20066;-43
2021/08/26 06:16:25;;;;;;;5.65;3.72;;;25.20;54.40;;;;;;4165723;28;20064;-44
2021/08/26 06:18:27;;;;;;;4.85;3.30;;;25.20;54.40;;;;;;4166328;28;20046;-43
2021/08/26 06:20:29;;;;;;;7.32;3.45;;;25.20;54.40;;;;;;4166203;28;20052;-41
2021/08/26 06:22:31;;;;;;;8.43;3.90;;;25.20;54.40;;;;;;4166238;28;20052;-41
2021/08/26 06:24:33;;;;;;;5.47;4.32;;;25.20;54.40;;;;;;4166169;28;20110;-40
2021/08/26 06:26:37;;;;;;;5.78;3.17;;;25.20;54.50;;;;;;4165769;28;20191;-41
2021/08/26 06:28:39;;;;;;;4.70;3.63;;;25.20;54.50;;;;;;4166988;28;20106;-44
2021/08/26 06:30:41;;;;;;;6.32;3.95;;;25.20;54.40;;;;;;4166968;28;20048;-43
2021/08/26 06:32:43;;;;;;;6.00;3.78;;;25.20;54.50;;;;;;4166874;28;20056;-44
2021/08/26 06:34:45;;;;;;;8.40;3.85;;;25.20;54.40;;;;;;4167085;28;20073;-44
2021/08/26 06:36:47;;;;;;;8.30;4.15;;;25.20;54.40;;;;;;4165378;28;20065;-46
2021/08/26 06:38:49;;;;;;;4.63;3.80;;;25.20;54.50;;;;;;4166915;28;20046;-48
2021/08/26 06:40:51;;;;;;;4.53;3.80;;;25.20;54.50;;;;;;4166878;28;20105;-47
2021/08/26 06:42:53;;;;;;;6.88;4.53;;;25.20;54.50;;;;;;4166569;28;20097;-44
2021/08/26 06:44:55;;;;;;;10.20;4.35;;;25.20;54.40;;;;;;4166614;28;20105;-49
2021/08/26 06:46:57;;;;;;;11.43;4.65;;;25.20;54.50;;;;;;4166430;28;20048;-49
2021/08/26 06:49:00;;;;;;;7.55;4.38;;;25.20;54.50;;;;;;4166592;28;20052;-48
2021/08/26 06:51:02;;;;;;;6.50;4.18;;;25.30;54.50;;;;;;4166728;28;20102;-43
2021/08/26 06:53:04;;;;;;;13.48;4.80;;;25.20;54.60;;;;;;4165893;28;20029;-41
2021/08/26 06:55:06;;;;;;;7.53;4.45;;;25.30;54.60;;;;;;4166493;28;20042;-44
2021/08/26 06:57:08;;;;;;;5.35;3.95;;;25.30;54.60;;;;;;4166704;28;20085;-43
2021/08/26 06:59:10;;;;;;;7.75;4.50;;;25.30;54.60;;;;;;4166489;28;20046;-42
2021/08/26 07:01:12;;;;;;;10.02;4.45;;;25.30;54.60;;;;;;4166493;28;20046;-43
2021/08/26 07:03:15;;;;;;;7.75;5.22;;;25.30;54.60;;;;;;4166121;28;20132;-44
2021/08/26 07:05:17;;;;;;;7.28;4.75;;;25.30;54.60;;;;;;4165989;28;20050;-43
2021/08/26 07:07:19;;;;;;;7.43;5.15;;;25.30;54.70;;;;;;4166106;28;20124;-42
2021/08/26 07:09:22;;;;;;;9.75;5.10;;;25.30;54.70;;;;;;4166325;28;20101;-43
2021/08/26 07:11:24;;;;;;;6.22;5.22;;;25.30;54.70;;;;;;4165882;28;20097;-42
2021/08/26 07:13:26;;;;;;;9.18;4.88;;;25.30;54.70;;;;;;4165230;28;20038;-43
2021/08/26 07:15:29;;;;;;;9.25;4.90;;;25.30;54.70;;;;;;4166221;28;20038;-44
2021/08/26 07:17:31;;;;;;;7.93;5.32;;;25.30;54.70;;;;;;4165965;28;20045;-42
2021/08/26 07:19:33;;;;;;;8.13;5.82;;;25.30;54.70;;;;;;4166451;28;20101;-45
2021/08/26 07:21:35;;;;;;;6.10;5.50;;;25.30;54.70;;;;;;4166245;28;20052;-42
2021/08/26 07:23:37;;;;;;;9.23;5.60;;;25.30;54.70;;;;;;4166307;28;20049;-44
2021/08/26 07:25:39;;;;;;;9.00;4.85;;;25.30;54.70;;;;;;4166050;28;20072;-43
2021/08/26 07:27:41;;;;;;;9.88;5.43;;;25.30;54.70;;;;;;4165733;28;20117;-47
2021/08/26 07:29:43;;;;;;;9.20;5.18;;;25.30;54.70;;;;;;4165059;28;20046;-43
2021/08/26 07:31:46;;;;;;;12.50;6.20;;;25.30;55.10;;;;;;4165818;28;20042;-43
2021/08/26 07:33:48;;;;;;;11.02;6.47;;;25.10;55.90;;;;;;4164871;28;20048;-45
2021/08/26 07:35:50;;;;;;;10.95;5.75;;;24.90;56.60;;;;;;4163537;28;20056;-51
2021/08/26 07:37:52;;;;;;;43.45;31.45;;;25.00;56.50;;;;;;4165375;28;20076;-48
2021/08/26 07:39:54;;;;;;;90.22;67.90;;;25.00;56.50;;;;;;4164600;28;20058;-46
2021/08/26 07:41:56;;;;;;;50.83;39.78;;;25.00;56.60;;;;;;3807978;28;10000589;-46
2021/08/26 07:43:58;;;;;;;36.28;27.40;;;25.00;56.80;;;;;;4147666;28;20111;-44
2021/08/26 07:46:00;;;;;;;35.65;23.85;;;24.90;56.80;;;;;;4147793;28;20046;-45
2021/08/26 07:48:03;;;;;;;30.33;22.05;;;24.90;57.10;;;;;;4147771;28;20061;-46
2021/08/26 07:50:06;;;;;;;25.35;19.48;;;24.80;57.20;;;;;;4147736;28;20066;-48
2021/08/26 07:52:08;;;;;;;20.23;15.85;;;24.90;57.10;;;;;;4147417;28;20114;-42
2021/08/26 07:54:10;;;;;;;23.13;15.35;;;24.80;57.00;;;;;;4147646;28;20039;-49
2021/08/26 07:56:12;;;;;;;17.42;14.20;;;24.70;57.00;;;;;;4147425;28;20106;-45
2021/08/26 07:58:14;;;;;;;19.75;13.15;;;24.70;57.10;;;;;;4150582;28;20052;-50
2021/08/26 08:00:16;;;;;;;20.17;11.68;;;24.60;57.30;;;;;;4163761;28;20045;-50
2021/08/26 08:02:19;;;;;;;13.95;10.63;;;24.50;57.40;;;;;;4164524;28;20046;-44
2021/08/26 08:04:21;;;;;;;17.98;10.35;;;24.50;57.30;;;;;;4163509;28;20046;-49
2021/08/26 08:06:23;;;;;;;13.32;9.52;;;24.50;57.40;;;;;;4162832;28;20041;-46
2021/08/26 08:08:26;;;;;;;13.90;10.13;;;24.60;57.40;;;;;;4163646;28;20054;-47
2021/08/26 08:10:28;;;;;;;16.88;9.85;;;24.50;57.30;;;;;;4163761;28;20069;-49
2021/08/26 08:12:29;;;;;;;12.55;8.82;;;24.60;57.50;;;;;;4163633;28;20062;-49
2021/08/26 08:14:32;;;;;;;11.65;9.18;;;24.50;57.30;;;;;;4163389;28;20056;-47
2021/08/26 08:16:34;;;;;;;10.80;8.60;;;24.50;57.60;;;;;;4163235;28;20056;-49
2021/08/26 08:18:36;;;;;;;11.73;9.77;;;24.60;57.40;;;;;;4163576;28;20050;-48
2021/08/26 08:20:39;;;;;;;10.38;8.13;;;24.70;57.10;;;;;;4163640;28;20042;-45
2021/08/26 08:22:41;;;;;;;16.73;10.65;;;24.70;56.90;;;;;;4163593;28;20097;-42
2021/08/26 08:24:43;;;;;;;60.90;51.15;;;24.70;57.10;;;;;;4163872;28;20049;-42
2021/08/26 08:26:45;;;;;;;56.58;46.78;;;24.70;57.10;;;;;;4164366;28;20121;-50
2021/08/26 08:28:47;;;;;;;35.58;30.08;;;24.70;56.80;;;;;;4163266;28;20153;-41
2021/08/26 08:30:49;;;;;;;43.00;24.17;;;24.70;56.90;;;;;;4162177;28;20117;-41
2021/08/26 08:32:53;;;;;;;29.35;22.25;;;24.80;57.40;;;;;;4165825;28;20069;-41
2021/08/26 08:34:55;;;;;;;42.55;21.60;;;24.90;56.80;;;;;;4165570;28;20049;-41
2021/08/26 08:36:57;;;;;;;37.92;19.88;;;24.90;56.70;;;;;;4164477;28;20046;-46
2021/08/26 08:38:59;;;;;;;32.85;18.75;;;25.00;56.40;;;;;;4165486;28;20042;-47
2021/08/26 08:41:02;;;;;;;32.28;19.45;;;25.20;56.10;;;;;;4165084;28;20050;-45
2021/08/26 08:43:04;;;;;;;29.40;18.52;;;25.30;55.80;;;;;;4164253;28;20077;-44
2021/08/26 08:45:06;;;;;;;28.13;16.55;;;25.30;55.60;;;;;;4165266;28;20054;-49
2021/08/26 08:47:11;;;;;;;25.52;15.60;;;25.40;55.40;;;;;;4164559;28;20072;-46
2021/08/26 08:49:18;;;;;;;20.58;14.20;;;25.40;55.20;;;;;;4165265;28;20062;-44
2021/08/26 08:51:22;;;;;;;23.55;13.60;;;25.40;55.00;;;;;;4164283;28;20046;-48
2021/08/26 08:53:25;;;;;;;29.88;14.18;;;25.40;54.90;;;;;;4165292;28;20041;-44
2021/08/26 08:55:27;;;;;;;23.38;12.68;;;25.50;54.90;;;;;;4165025;28;20042;-40
2021/08/26 08:57:29;;;;;;;19.63;13.27;;;25.50;54.80;;;;;;4165272;28;20101;-45
2021/08/26 08:59:34;;;;;;;15.25;12.20;;;25.50;54.80;;;;;;4165047;28;20124;-44
2021/08/26 09:01:36;;;;;;;16.73;12.18;;;25.50;54.70;;;;;;4164948;28;20102;-49
2021/08/26 09:03:38;;;;;;;17.58;12.05;;;25.60;54.60;;;;;;4164860;28;20045;-47
2021/08/26 09:05:57;;;;;;;14.63;11.35;;;25.60;54.50;;;;;;4164221;28;20113;-42
2021/08/26 09:08:09;;;;;;;16.15;11.00;;;25.60;54.50;;;;;;4165033;28;20065;-50
2021/08/26 09:10:13;;;;;;;12.02;10.38;;;25.60;54.40;;;;;;4165284;28;20046;-47
2021/08/26 09:12:15;;;;;;;13.60;9.77;;;25.50;54.40;;;;;;4165245;28;20070;-48
2021/08/26 09:14:17;;;;;;;15.77;9.85;;;25.60;54.40;;;;;;4165146;28;20098;-49
2021/08/26 09:16:44;;;;;;;12.15;9.32;;;25.60;54.30;;;;;;4164984;28;20042;-50
2021/08/26 09:18:47;;;;;;;16.33;9.85;;;25.60;54.30;;;;;;4165266;28;20077;-51
2021/08/26 09:20:55;;;;;;;14.27;9.52;;;25.60;54.30;;;;;;4165386;28;20080;-51
2021/08/26 09:23:04;;;;;;;10.20;9.07;;;25.60;54.40;;;;;;4165233;28;20133;-49
2021/08/26 09:25:07;;;;;;;12.52;9.63;;;25.60;54.20;;;;;;4165141;28;20101;-47
2021/08/26 09:27:09;;;;;;;11.40;8.73;;;25.60;54.20;;;;;;4165020;28;20045;-50
2021/08/26 09:29:14;;;;;;;12.63;8.38;;;25.60;54.20;;;;;;4164974;28;20468;-45
2021/08/26 09:31:24;;;;;;;9.77;8.17;;;25.60;54.20;;;;;;4164214;28;20041;-47
2021/08/26 09:33:44;;;;;;;8.85;7.95;;;25.60;54.20;;;;;;4165039;28;20291;-48
2021/08/26 09:35:46;;;;;;;12.65;8.40;;;25.60;54.10;;;;;;4164869;28;20038;-46
2021/08/26 09:38:00;;;;;;;8.73;7.82;;;25.60;54.10;;;;;;4164951;28;20120;-48
2021/08/26 09:40:06;;;;;;;9.73;8.32;;;25.70;54.10;;;;;;4164889;28;20141;-48
2021/08/26 09:42:08;;;;;;;11.43;8.25;;;25.60;54.10;;;;;;4164809;28;20046;-45
2021/08/26 09:44:12;;;;;;;9.95;7.28;;;25.70;54.20;;;;;;4164854;28;20064;-49
2021/08/26 09:46:29;;;;;;;8.77;7.72;;;25.60;54.10;;;;;;4164751;28;20065;-50
2021/08/26 09:48:35;;;;;;;9.38;6.88;;;25.60;54.10;;;;;;4164891;28;20042;-49
2021/08/26 09:50:52;;;;;;;8.77;7.07;;;25.60;54.10;;;;;;4163932;28;20097;-50
2021/08/26 09:52:54;;;;;;;13.35;7.07;;;25.60;54.10;;;;;;4155663;28;20046;-43
2021/08/26 09:54:57;;;;;;;9.63;7.15;;;25.40;54.70;;;;;;4162831;28;20102;-41
2021/08/26 09:56:59;;;;;;;8.82;6.97;;;25.40;54.70;;;;;;4156149;28;20070;-42
2021/08/26 09:59:04;;;;;;;14.82;7.30;;;25.40;55.20;;;;;;4149870;28;20045;-44
2021/08/26 10:01:17;;;;;;;9.60;6.57;;;25.30;55.20;;;;;;4153845;28;20074;-46
2021/08/26 10:03:30;;;;;;;7.75;6.78;;;25.10;56.00;;;;;;4157624;28;20110;-51
2021/08/26 10:05:32;;;;;;;12.85;5.95;;;25.00;55.80;;;;;;4162934;28;20052;-46
2021/08/26 10:07:34;;;;;;;7.72;6.05;;;24.90;56.10;;;;;;4166506;28;20046;-47
2021/08/26 10:09:40;;;;;;;7.97;5.85;;;24.90;55.60;;;;;;4165794;28;20038;-44
2021/08/26 10:11:44;;;;;;;7.93;5.65;;;24.90;55.50;;;;;;4151315;28;20106;-47
2021/08/26 10:13:48;;;;;;;17.15;7.07;;;24.90;55.90;;;;;;4161873;28;20061;-47
2021/08/26 10:15:51;;;;;;;10.95;5.90;;;25.00;55.50;;;;;;4165954;28;20045;-49
2021/08/26 10:17:54;;;;;;;7.63;6.30;;;25.10;55.50;;;;;;4166244;28;20106;-51
2021/08/26 10:19:56;;;;;;;9.35;7.15;;;25.30;55.40;;;;;;4158114;28;20124;-47
2021/08/26 10:21:58;;;;;;;8.43;6.07;;;25.40;55.30;;;;;;4158224;28;20097;-44
2021/08/26 10:24:01;;;;;;;6.82;5.82;;;25.40;55.00;;;;;;4159981;28;20044;-44
2021/08/26 10:26:05;;;;;;;7.22;6.05;;;25.40;54.60;;;;;;4164357;28;20101;-47
2021/08/26 10:28:09;;;;;;;6.72;5.75;;;25.50;54.80;;;;;;4166447;28;20038;-53
2021/08/26 10:30:43;;;;;;;6.60;5.72;;;25.50;54.90;;;;;;4162278;28;20037;-48
2021/08/26 10:33:10;;;;;;;8.02;5.68;;;25.50;54.70;;;;;;4149687;28;20050;-52
2021/08/26 10:35:14;;;;;;;6.25;5.32;;;25.50;54.70;;;;;;4160419;28;20046;-47
2021/08/26 10:37:19;;;;;;;8.60;6.03;;;25.50;54.70;;;;;;4165801;28;20049;-44
2021/08/26 10:39:33;;;;;;;6.93;5.38;;;25.40;54.60;;;;;;4165372;28;20050;-47
2021/08/26 10:41:35;;;;;;;7.22;5.53;;;25.50;54.90;;;;;;4154393;28;20049;-48